Time;durP1;ratioP1;P1;durP2;ratioP2;P2;SDS_P1;SDS_P2;PMS_P1;PMS_P2;Temp;Humidity;BMP_temperature;BMP_pressure;BME280_temperature;BME280_humidity;BME280_pressure;Samples;Min_cycle;Max_cycle;Signal;HPM_P1;HPM_P2
2022/03/06 00:02:15;;;;;;;10.68;4.03;;;4.80;36.30;;;;;;2504753;55;21262;-64
2022/03/06 00:04:41;;;;;;;9.52;4.12;;;4.80;36.40;;;;;;2288615;55;20978;-62
2022/03/06 00:07:08;;;;;;;8.90;4.12;;;4.80;36.40;;;;;;2481553;55;21029;-64
2022/03/06 00:09:35;;;;;;;9.13;4.22;;;4.80;36.50;;;;;;2289665;55;21050;-64
2022/03/06 00:12:01;;;;;;;8.23;3.78;;;4.70;36.50;;;;;;2288750;55;21883;-64
2022/03/06 00:14:28;;;;;;;9.55;4.03;;;4.70;36.50;;;;;;2289899;55;20990;-64
2022/03/06 00:16:54;;;;;;;9.02;3.75;;;4.70;36.50;;;;;;2292225;55;21010;-62
2022/03/06 00:19:20;;;;;;;10.35;4.30;;;4.70;36.50;;;;;;2285721;54;21318;-64
2022/03/06 00:21:47;;;;;;;9.93;4.25;;;4.70;36.50;;;;;;2298332;55;21774;-62
2022/03/06 00:24:13;;;;;;;10.00;4.35;;;4.60;36.40;;;;;;2284993;54;21482;-61
2022/03/06 00:26:40;;;;;;;9.32;3.92;;;4.60;36.40;;;;;;2524226;55;21045;-62
2022/03/06 00:29:06;;;;;;;7.68;3.70;;;4.60;36.50;;;;;;2288195;55;20962;-63
2022/03/06 00:31:32;;;;;;;8.23;3.40;;;4.60;36.50;;;;;;2340768;55;20981;-63
2022/03/06 00:33:59;;;;;;;7.32;3.58;;;4.50;36.50;;;;;;2291489;55;21014;-62
2022/03/06 00:36:25;;;;;;;9.13;3.80;;;4.50;36.50;;;;;;2313149;54;20946;-64
2022/03/06 00:38:51;;;;;;;10.05;4.30;;;4.40;36.40;;;;;;2364308;55;21817;-64
2022/03/06 00:41:18;;;;;;;10.40;4.53;;;4.40;36.50;;;;;;2291160;55;21050;-62
2022/03/06 00:43:44;;;;;;;10.20;4.75;;;4.40;36.60;;;;;;2288073;55;20953;-64
2022/03/06 00:46:12;;;;;;;10.85;4.45;;;4.30;36.60;;;;;;2522689;55;20961;-64
2022/03/06 00:48:41;;;;;;;9.43;4.57;;;4.30;36.60;;;;;;2282410;55;21546;-63
2022/03/06 00:51:08;;;;;;;12.68;4.93;;;4.20;36.60;;;;;;2277068;55;20994;-63
2022/03/06 00:53:35;;;;;;;10.80;4.70;;;4.20;37.30;;;;;;2289280;55;20954;-64
2022/03/06 00:56:03;;;;;;;10.70;4.50;;;4.20;37.30;;;;;;2361036;55;20970;-63
2022/03/06 00:58:29;;;;;;;9.35;4.07;;;4.10;36.80;;;;;;2288748;55;21499;-63
2022/03/06 01:00:56;;;;;;;10.32;4.10;;;4.10;36.80;;;;;;2486942;55;21612;-63
2022/03/06 01:03:22;;;;;;;10.95;4.60;;;4.10;36.80;;;;;;2286859;55;21014;-62
2022/03/06 01:05:49;;;;;;;9.25;3.97;;;4.00;36.70;;;;;;2463649;54;21054;-62
2022/03/06 01:08:15;;;;;;;13.43;4.75;;;4.00;36.80;;;;;;2489847;54;20958;-62
2022/03/06 01:10:43;;;;;;;11.68;4.30;;;4.00;36.80;;;;;;2325807;54;20990;-63
2022/03/06 01:13:10;;;;;;;12.10;3.97;;;3.90;36.80;;;;;;2287046;55;20970;-63
2022/03/06 01:15:37;;;;;;;12.82;4.55;;;3.90;36.80;;;;;;2269533;55;21095;-62
2022/03/06 01:18:06;;;;;;;12.70;4.82;;;3.90;36.80;;;;;;2286546;55;20971;-62
2022/03/06 01:20:34;;;;;;;9.82;4.57;;;3.80;36.80;;;;;;2523719;55;20945;-63
2022/03/06 01:23:00;;;;;;;10.90;4.20;;;3.80;36.80;;;;;;2288623;55;21918;-64
2022/03/06 01:25:27;;;;;;;11.38;4.62;;;3.80;36.90;;;;;;2523286;55;21037;-63
2022/03/06 01:27:54;;;;;;;12.32;4.85;;;3.70;36.90;;;;;;2289282;55;20966;-63
2022/03/06 01:30:21;;;;;;;9.57;4.20;;;3.70;36.90;;;;;;2414474;55;21772;-63
2022/03/06 01:32:48;;;;;;;11.52;4.68;;;3.60;36.90;;;;;;2523274;55;20954;-63
2022/03/06 01:35:15;;;;;;;13.80;4.10;;;3.60;36.90;;;;;;2470514;55;21035;-63
2022/03/06 01:37:42;;;;;;;11.38;4.20;;;3.60;37.00;;;;;;2281583;54;20941;-63
2022/03/06 01:40:09;;;;;;;10.43;4.70;;;3.50;37.00;;;;;;2298737;54;21905;-62
2022/03/06 01:42:40;;;;;;;8.88;3.95;;;3.50;37.10;;;;;;2289610;54;20970;-63
2022/03/06 01:45:11;;;;;;;10.27;4.50;;;3.40;37.00;;;;;;2523134;55;21042;-63
2022/03/06 01:47:40;;;;;;;8.48;3.90;;;3.40;37.10;;;;;;2289209;55;20933;-62
2022/03/06 01:50:09;;;;;;;11.57;4.45;;;3.30;37.10;;;;;;2344882;55;20981;-61
2022/03/06 01:52:35;;;;;;;10.45;4.43;;;3.30;37.50;;;;;;2289340;55;21584;-63
2022/03/06 01:55:01;;;;;;;20.05;7.50;;;3.20;37.30;;;;;;2288775;55;20966;-62
2022/03/06 01:57:28;;;;;;;32.92;11.40;;;3.10;37.20;;;;;;2289239;55;20930;-63
2022/03/06 01:59:54;;;;;;;36.15;13.77;;;3.10;37.20;;;;;;2523521;55;20953;-63
2022/03/06 02:02:20;;;;;;;33.38;13.18;;;3.00;37.20;;;;;;2289210;55;20970;-62
2022/03/06 02:04:47;;;;;;;26.73;11.45;;;3.00;37.20;;;;;;2376579;55;20966;-65
2022/03/06 02:07:13;;;;;;;49.88;17.58;;;2.90;37.30;;;;;;2334774;55;20946;-62
2022/03/06 02:09:39;;;;;;;31.55;13.43;;;2.90;37.40;;;;;;2288937;54;20946;-63
2022/03/06 02:12:24;;;;;;;31.75;13.23;;;2.80;37.40;;;;;;2288534;55;20930;-63
2022/03/06 02:14:55;;;;;;;23.52;9.70;;;2.80;37.50;;;;;;2330414;55;21026;-64
2022/03/06 02:17:22;;;;;;;24.03;8.97;;;2.70;37.50;;;;;;2289740;55;20943;-64
2022/03/06 02:20:09;;;;;;;20.45;8.45;;;2.70;37.50;;;;;;2522952;55;21228;-63
2022/03/06 02:22:37;;;;;;;21.70;8.23;;;2.60;37.50;;;;;;2520643;55;20985;-64
2022/03/06 02:25:21;;;;;;;18.55;7.40;;;2.60;37.60;;;;;;2292817;55;20945;-64
2022/03/06 02:27:48;;;;;;;16.08;6.43;;;2.50;37.60;;;;;;2493068;55;20958;-63
2022/03/06 02:30:16;;;;;;;18.17;6.32;;;2.50;37.70;;;;;;2293890;55;20960;-63
2022/03/06 02:32:44;;;;;;;13.85;5.78;;;2.40;37.60;;;;;;2280115;54;20958;-65
2022/03/06 02:35:11;;;;;;;14.55;6.00;;;2.40;37.80;;;;;;2288706;55;20946;-64
2022/03/06 02:37:37;;;;;;;11.20;5.10;;;2.30;37.80;;;;;;2289097;55;21110;-64
2022/03/06 02:40:06;;;;;;;12.95;5.95;;;2.30;38.00;;;;;;2523581;55;20961;-65
2022/03/06 02:42:33;;;;;;;12.45;5.07;;;2.20;38.10;;;;;;2288402;55;21013;-63
2022/03/06 02:45:01;;;;;;;10.85;5.03;;;2.20;38.30;;;;;;2517177;55;21330;-62
2022/03/06 02:47:27;;;;;;;13.10;5.57;;;2.20;38.30;;;;;;2289118;55;21476;-63
2022/03/06 02:49:54;;;;;;;11.63;4.50;;;2.20;38.30;;;;;;2290063;55;20950;-64
2022/03/06 02:52:21;;;;;;;12.88;5.10;;;2.20;38.40;;;;;;2288837;55;21025;-64
2022/03/06 02:54:47;;;;;;;13.05;5.45;;;2.10;38.40;;;;;;2289053;55;21019;-65
2022/03/06 02:57:14;;;;;;;10.90;4.93;;;2.10;38.50;;;;;;2288553;55;21035;-65
2022/03/06 02:59:41;;;;;;;9.90;4.30;;;2.00;38.60;;;;;;2288669;55;21024;-64
2022/03/06 03:02:08;;;;;;;13.60;5.47;;;2.00;38.50;;;;;;2288015;55;21068;-63
2022/03/06 03:04:37;;;;;;;11.32;4.78;;;2.00;38.60;;;;;;2412967;55;21133;-65
2022/03/06 03:07:04;;;;;;;10.85;4.82;;;2.00;38.70;;;;;;2288638;55;20946;-63
2022/03/06 03:09:30;;;;;;;11.40;5.30;;;1.90;38.60;;;;;;2523372;55;20986;-65
2022/03/06 03:11:56;;;;;;;12.88;5.05;;;1.90;38.70;;;;;;2288545;55;20946;-63
2022/03/06 03:14:35;;;;;;;10.63;4.85;;;1.90;38.80;;;;;;2289088;55;21014;-63
2022/03/06 03:17:02;;;;;;;10.60;4.87;;;1.80;38.60;;;;;;2515806;54;20994;-63
2022/03/06 03:19:29;;;;;;;11.07;5.10;;;1.80;38.60;;;;;;2271592;55;21550;-64
2022/03/06 03:21:55;;;;;;;13.90;5.25;;;1.70;38.50;;;;;;2523550;55;21813;-65
2022/03/06 03:24:22;;;;;;;12.65;5.03;;;1.70;38.60;;;;;;2523655;55;20961;-63
2022/03/06 03:30:29;;;;;;;11.50;4.40;;;1.60;38.80;;;;;;2293036;55;1457782;-64
2022/03/06 03:32:56;;;;;;;12.35;5.12;;;1.60;38.60;;;;;;2286078;55;21026;-62
2022/03/06 03:35:23;;;;;;;11.48;4.70;;;1.50;38.60;;;;;;2523571;55;20915;-63
2022/03/06 03:37:51;;;;;;;11.98;4.55;;;1.40;38.70;;;;;;2266666;56;21105;-65
2022/03/06 03:40:17;;;;;;;11.68;4.50;;;1.40;38.70;;;;;;2448763;55;20950;-64
2022/03/06 03:42:44;;;;;;;12.15;4.65;;;1.20;38.60;;;;;;2288045;55;21045;-64
2022/03/06 03:45:10;;;;;;;10.52;4.60;;;1.30;38.80;;;;;;2289338;55;20966;-62
2022/03/06 03:47:37;;;;;;;10.90;5.03;;;1.30;39.00;;;;;;2288897;55;21033;-63
2022/03/06 03:50:04;;;;;;;9.82;4.57;;;1.20;38.90;;;;;;2296235;55;21025;-65
2022/03/06 03:52:31;;;;;;;11.02;4.78;;;1.20;39.00;;;;;;2289816;55;20957;-65
2022/03/06 03:54:57;;;;;;;12.88;5.45;;;1.20;39.10;;;;;;2497978;55;20938;-65
2022/03/06 03:57:24;;;;;;;13.02;5.20;;;1.10;39.10;;;;;;2292874;55;21566;-64
2022/03/06 03:59:50;;;;;;;12.68;5.50;;;1.10;39.20;;;;;;2520174;55;21017;-63
2022/03/06 04:02:17;;;;;;;12.75;5.60;;;1.10;39.30;;;;;;2290689;55;20977;-63
2022/03/06 04:04:44;;;;;;;13.27;5.20;;;1.00;39.40;;;;;;2288630;55;21600;-65
2022/03/06 04:07:12;;;;;;;9.23;4.50;;;1.00;39.40;;;;;;2288119;55;20996;-63
2022/03/06 04:09:38;;;;;;;14.30;5.70;;;1.00;39.50;;;;;;2301732;55;20938;-64
2022/03/06 04:12:05;;;;;;;11.98;4.93;;;0.90;39.40;;;;;;2288919;55;21030;-65
2022/03/06 04:14:34;;;;;;;12.98;5.30;;;0.90;39.50;;;;;;2523708;55;20953;-63
2022/03/06 04:20:41;;;;;;;15.57;6.12;;;0.90;39.70;;;;;;2289665;55;20962;-65
2022/03/06 04:23:08;;;;;;;13.48;5.68;;;0.80;39.50;;;;;;2317707;55;21475;-63
2022/03/06 04:25:34;;;;;;;12.90;5.72;;;0.80;39.60;;;;;;2289153;55;21543;-65
2022/03/06 04:28:00;;;;;;;13.32;5.07;;;0.80;39.60;;;;;;2289814;55;20973;-64
2022/03/06 04:30:27;;;;;;;12.60;5.30;;;0.70;39.60;;;;;;2524499;55;21014;-65
2022/03/06 04:32:55;;;;;;;11.27;5.12;;;0.70;40.30;;;;;;2289770;55;20998;-64
2022/03/06 04:35:21;;;;;;;14.18;5.32;;;0.70;39.80;;;;;;2519608;54;20989;-64
2022/03/06 04:37:48;;;;;;;14.90;6.22;;;0.60;39.70;;;;;;2290181;54;20946;-64
2022/03/06 04:40:15;;;;;;;14.25;5.87;;;0.60;39.80;;;;;;2292181;54;21033;-63
2022/03/06 04:42:42;;;;;;;11.38;4.85;;;0.60;39.80;;;;;;2284822;54;21538;-63
2022/03/06 04:45:09;;;;;;;13.60;5.70;;;0.60;39.90;;;;;;2359021;55;20949;-65
2022/03/06 04:47:35;;;;;;;17.50;6.47;;;0.50;39.90;;;;;;2523997;55;20958;-65
2022/03/06 04:50:04;;;;;;;12.77;5.62;;;0.50;39.90;;;;;;2437062;55;21455;-65
2022/03/06 04:52:30;;;;;;;19.62;7.37;;;0.50;40.00;;;;;;2434996;55;20962;-64
2022/03/06 04:54:57;;;;;;;16.33;6.53;;;0.50;40.00;;;;;;2363037;55;21057;-65
2022/03/06 04:57:23;;;;;;;15.35;6.05;;;0.50;40.00;;;;;;2287235;55;20961;-64
2022/03/06 05:00:00;;;;;;;14.98;6.07;;;0.50;40.10;;;;;;2289319;55;21473;-64
2022/03/06 05:02:27;;;;;;;14.10;5.80;;;0.40;40.00;;;;;;2278991;55;21009;-64
2022/03/06 05:04:53;;;;;;;15.40;5.78;;;0.40;40.10;;;;;;2321509;55;21017;-63
2022/03/06 05:07:20;;;;;;;13.10;5.85;;;0.40;40.20;;;;;;2286507;55;20993;-62
2022/03/06 05:09:46;;;;;;;14.85;5.53;;;0.40;40.20;;;;;;2519039;55;21625;-64
2022/03/06 05:12:13;;;;;;;15.30;6.35;;;0.40;40.30;;;;;;2292128;55;20934;-63
2022/03/06 05:14:39;;;;;;;13.75;5.37;;;0.30;40.20;;;;;;2469872;54;21438;-64
2022/03/06 05:17:05;;;;;;;12.60;5.75;;;0.30;40.20;;;;;;2289810;55;20979;-64
2022/03/06 05:19:32;;;;;;;14.13;5.20;;;0.30;40.30;;;;;;2522538;55;21806;-65
2022/03/06 05:21:58;;;;;;;12.35;5.25;;;0.30;40.30;;;;;;2289343;55;21049;-65
2022/03/06 05:24:26;;;;;;;11.80;5.28;;;0.20;40.30;;;;;;2288799;55;20998;-65
2022/03/06 05:26:53;;;;;;;13.32;5.72;;;0.20;40.40;;;;;;2289603;55;21483;-64
2022/03/06 05:29:22;;;;;;;14.25;5.82;;;0.20;40.40;;;;;;2523588;55;20949;-63
2022/03/06 05:31:49;;;;;;;11.50;5.30;;;0.20;40.50;;;;;;2289502;55;20962;-65
2022/03/06 05:34:15;;;;;;;15.63;5.70;;;0.20;40.60;;;;;;2519368;54;20930;-64
2022/03/06 05:36:43;;;;;;;12.82;5.47;;;0.10;40.50;;;;;;2288628;55;21089;-64
2022/03/06 05:39:10;;;;;;;11.55;4.75;;;0.10;40.60;;;;;;2287724;55;21474;-63
2022/03/06 05:41:37;;;;;;;14.43;5.65;;;0.10;40.50;;;;;;2289337;55;20994;-63
2022/03/06 05:44:04;;;;;;;12.40;5.25;;;0.10;40.90;;;;;;2293686;55;21049;-64
2022/03/06 05:46:30;;;;;;;12.25;5.10;;;0.00;40.50;;;;;;2289096;55;21057;-64
2022/03/06 05:48:57;;;;;;;14.82;5.70;;;0.10;40.60;;;;;;2521913;55;21042;-64
2022/03/06 05:51:24;;;;;;;12.52;5.07;;;0.00;40.60;;;;;;2285275;55;20970;-63
2022/03/06 05:53:50;;;;;;;12.95;5.22;;;0.00;40.70;;;;;;2324878;55;20998;-63
2022/03/06 05:56:19;;;;;;;14.05;5.50;;;0.00;40.70;;;;;;2289073;55;20949;-63
2022/03/06 05:58:45;;;;;;;13.30;5.30;;;-0.10;40.90;;;;;;2301823;55;21522;-64
2022/03/06 06:01:13;;;;;;;11.82;5.15;;;-0.10;41.00;;;;;;2286169;55;21042;-63
2022/03/06 06:03:39;;;;;;;15.00;5.62;;;-0.10;41.10;;;;;;2491736;55;20981;-62
2022/03/06 06:09:28;;;;;;;11.45;4.78;;;-0.10;41.40;;;;;;2289199;55;21029;-63
2022/03/06 06:11:56;;;;;;;13.80;5.72;;;-0.10;41.10;;;;;;2287675;55;20998;-64
2022/03/06 06:14:23;;;;;;;11.82;4.82;;;-0.10;41.10;;;;;;2462908;55;21022;-63
2022/03/06 06:16:50;;;;;;;13.07;5.20;;;-0.10;41.20;;;;;;2276040;55;21042;-64
2022/03/06 06:19:16;;;;;;;11.90;5.25;;;-0.20;41.20;;;;;;2420092;55;20982;-62
2022/03/06 06:21:43;;;;;;;10.80;4.75;;;-0.20;41.30;;;;;;2288831;55;20946;-63
2022/03/06 06:24:13;;;;;;;12.52;5.57;;;-0.20;41.40;;;;;;2338927;55;21001;-62
2022/03/06 06:26:54;;;;;;;14.50;5.40;;;-0.20;41.50;;;;;;2288870;55;21081;-64
2022/03/06 06:29:20;;;;;;;12.37;5.10;;;-0.20;41.50;;;;;;2522230;55;21026;-63
2022/03/06 06:35:27;;;;;;;10.38;4.05;;;-0.20;41.80;;;;;;2352525;55;20941;-63
2022/03/06 06:37:54;;;;;;;12.65;5.60;;;-0.20;41.50;;;;;;2284100;55;20994;-62
2022/03/06 06:40:20;;;;;;;12.80;5.40;;;-0.20;41.60;;;;;;2523472;55;20994;-65
2022/03/06 06:42:47;;;;;;;12.23;5.57;;;-0.20;41.60;;;;;;2288642;55;20934;-64
2022/03/06 06:45:15;;;;;;;12.10;5.50;;;-0.20;41.70;;;;;;2258547;55;20961;-63
2022/03/06 06:47:44;;;;;;;10.35;4.80;;;-0.20;41.80;;;;;;2259730;56;21017;-62
2022/03/06 06:50:11;;;;;;;12.35;5.60;;;-0.20;41.90;;;;;;2347755;55;21029;-64
2022/03/06 06:52:38;;;;;;;15.15;6.28;;;-0.10;41.90;;;;;;2278590;55;21070;-63
2022/03/06 06:55:05;;;;;;;20.92;7.87;;;-0.10;42.10;;;;;;2516247;55;21097;-63
2022/03/06 06:57:50;;;;;;;25.00;9.23;;;-0.10;42.20;;;;;;2283873;55;21045;-64
2022/03/06 07:00:17;;;;;;;18.50;7.32;;;0.00;42.60;;;;;;2373133;56;21041;-63
2022/03/06 07:02:44;;;;;;;13.90;5.97;;;0.00;42.40;;;;;;2435308;55;20964;-63
2022/03/06 07:05:11;;;;;;;25.27;9.98;;;0.00;42.40;;;;;;2410193;55;21631;-63
2022/03/06 07:07:38;;;;;;;26.02;10.98;;;0.10;42.60;;;;;;2260475;57;20937;-64
2022/03/06 07:10:05;;;;;;;22.25;10.32;;;0.10;42.70;;;;;;2429444;55;20919;-64
2022/03/06 07:12:43;;;;;;;25.30;10.80;;;0.10;42.80;;;;;;2279036;56;21511;-63
2022/03/06 07:15:10;;;;;;;20.95;9.38;;;0.20;43.10;;;;;;2363012;55;21054;-64
2022/03/06 07:17:56;;;;;;;20.95;8.98;;;0.30;43.10;;;;;;2276521;55;21065;-65
2022/03/06 07:20:23;;;;;;;20.50;8.07;;;0.30;43.40;;;;;;2511920;55;20991;-63
2022/03/06 07:22:49;;;;;;;19.20;7.78;;;0.40;43.20;;;;;;2280213;59;21099;-63
2022/03/06 07:25:15;;;;;;;18.52;7.85;;;0.50;43.30;;;;;;2275300;56;21354;-65
2022/03/06 07:27:42;;;;;;;20.77;8.05;;;0.50;43.30;;;;;;2277639;55;20987;-64
2022/03/06 07:30:10;;;;;;;14.63;7.20;;;0.60;43.40;;;;;;2296867;55;21062;-63
2022/03/06 07:32:47;;;;;;;14.93;6.93;;;0.70;43.60;;;;;;2275713;55;21425;-65
2022/03/06 07:35:14;;;;;;;16.95;7.32;;;0.80;43.70;;;;;;2478412;55;20999;-65
2022/03/06 07:37:41;;;;;;;17.27;7.78;;;0.80;43.60;;;;;;2505135;55;21490;-64
2022/03/06 07:40:08;;;;;;;19.23;7.35;;;0.90;43.70;;;;;;2380685;55;20972;-63
2022/03/06 07:42:35;;;;;;;14.63;6.70;;;1.00;43.80;;;;;;2275224;55;21286;-64
2022/03/06 07:45:02;;;;;;;17.50;7.53;;;1.10;43.80;;;;;;2360248;55;20998;-64
2022/03/06 07:47:29;;;;;;;15.45;6.80;;;1.10;43.80;;;;;;2287844;55;20975;-65
2022/03/06 07:49:56;;;;;;;17.92;7.68;;;1.20;43.90;;;;;;2316469;55;21287;-65
2022/03/06 07:52:23;;;;;;;15.98;6.75;;;1.30;43.90;;;;;;2276502;55;21003;-63
2022/03/06 07:54:50;;;;;;;16.55;7.20;;;1.40;44.10;;;;;;2352016;55;20991;-65
2022/03/06 07:57:16;;;;;;;13.82;6.10;;;1.50;44.10;;;;;;2289808;55;20966;-64
2022/03/06 07:59:42;;;;;;;13.05;6.20;;;1.60;44.20;;;;;;2490829;55;21540;-64
2022/03/06 08:02:09;;;;;;;13.75;6.18;;;1.70;44.20;;;;;;2268805;55;21026;-66
2022/03/06 08:04:35;;;;;;;16.42;6.22;;;1.80;44.20;;;;;;2273365;55;21365;-65
2022/03/06 08:07:02;;;;;;;14.87;6.75;;;1.90;44.30;;;;;;2278110;56;20972;-65
2022/03/06 08:09:29;;;;;;;17.92;8.55;;;2.00;44.30;;;;;;2320486;55;21045;-62
2022/03/06 08:11:56;;;;;;;18.60;7.87;;;2.10;44.40;;;;;;2278387;56;20920;-62
2022/03/06 08:14:22;;;;;;;18.52;8.32;;;2.20;44.40;;;;;;2277804;56;20915;-63
2022/03/06 08:16:49;;;;;;;16.80;7.50;;;2.30;44.50;;;;;;2277860;56;20975;-65
2022/03/06 08:19:16;;;;;;;16.23;7.05;;;2.40;44.50;;;;;;2278241;56;21310;-62
2022/03/06 08:21:42;;;;;;;15.30;6.50;;;2.50;44.60;;;;;;2280381;55;21043;-63
2022/03/06 08:24:09;;;;;;;17.60;7.60;;;2.60;44.60;;;;;;2275564;55;21828;-64
2022/03/06 08:26:35;;;;;;;15.25;7.43;;;2.70;44.60;;;;;;2459923;55;21544;-64
2022/03/06 08:29:02;;;;;;;16.20;6.87;;;2.80;44.60;;;;;;2274196;55;21012;-64
2022/03/06 08:31:28;;;;;;;16.85;7.47;;;2.90;44.90;;;;;;2510680;55;21760;-64
2022/03/06 08:33:54;;;;;;;15.15;7.47;;;3.10;45.40;;;;;;2277225;55;21078;-64
2022/03/06 08:36:21;;;;;;;13.57;6.65;;;3.40;46.00;;;;;;2278042;55;20951;-64
2022/03/06 08:38:47;;;;;;;13.68;6.85;;;3.80;46.60;;;;;;2276157;55;21536;-64
2022/03/06 08:41:14;;;;;;;14.35;6.68;;;4.10;46.80;;;;;;2277892;56;21019;-64
2022/03/06 08:43:40;;;;;;;13.65;6.40;;;4.50;47.60;;;;;;2281485;55;20938;-63
2022/03/06 08:46:07;;;;;;;11.20;6.20;;;4.90;47.20;;;;;;2273933;55;21015;-63
2022/03/06 08:48:36;;;;;;;11.90;5.93;;;5.20;47.40;;;;;;2278361;56;20995;-64
2022/03/06 08:51:03;;;;;;;11.85;6.50;;;5.60;47.70;;;;;;2255360;57;21325;-64
2022/03/06 08:53:32;;;;;;;11.93;6.37;;;6.10;48.30;;;;;;2281990;55;20957;-65
2022/03/06 08:55:59;;;;;;;13.77;6.57;;;6.40;47.70;;;;;;2286733;55;20942;-63
2022/03/06 08:58:25;;;;;;;13.52;6.90;;;6.80;47.30;;;;;;2285603;55;21536;-62
2022/03/06 09:00:52;;;;;;;11.63;6.15;;;7.20;47.00;;;;;;2286840;55;21246;-64
2022/03/06 09:03:18;;;;;;;12.37;6.25;;;7.40;46.50;;;;;;2286084;54;21562;-64
2022/03/06 09:05:45;;;;;;;13.77;6.97;;;7.60;46.00;;;;;;2286702;55;21073;-65
2022/03/06 09:08:12;;;;;;;11.77;6.97;;;7.70;45.40;;;;;;2285774;55;21742;-65
2022/03/06 09:10:41;;;;;;;13.13;7.30;;;7.90;45.10;;;;;;2286274;55;20954;-64
2022/03/06 09:13:08;;;;;;;12.10;6.57;;;8.00;44.70;;;;;;2286789;55;21030;-65
2022/03/06 09:15:37;;;;;;;12.60;6.55;;;8.00;44.30;;;;;;2287240;55;20969;-65
2022/03/06 09:18:04;;;;;;;13.80;7.22;;;8.10;44.20;;;;;;2286971;55;20962;-64
2022/03/06 09:20:31;;;;;;;13.93;7.07;;;8.10;44.10;;;;;;2288097;55;20958;-63
2022/03/06 09:23:00;;;;;;;13.48;7.32;;;8.20;44.00;;;;;;2286274;55;21499;-65
2022/03/06 09:25:28;;;;;;;13.57;7.20;;;8.20;44.00;;;;;;2287189;55;21026;-64
2022/03/06 09:31:23;;;;;;;14.65;7.57;;;8.40;43.80;;;;;;2437606;55;21369;-65
2022/03/06 09:33:49;;;;;;;14.52;7.82;;;8.50;43.70;;;;;;2286504;55;20950;-64
2022/03/06 09:36:27;;;;;;;13.93;7.12;;;8.50;43.50;;;;;;2379634;55;20949;-65
2022/03/06 09:38:53;;;;;;;12.98;6.82;;;8.60;43.30;;;;;;2286728;55;21033;-64
2022/03/06 09:41:22;;;;;;;13.27;7.30;;;8.60;43.30;;;;;;2358947;55;21408;-66
2022/03/06 09:43:49;;;;;;;14.35;7.75;;;8.70;43.70;;;;;;2285908;55;20954;-64
2022/03/06 09:46:16;;;;;;;15.75;8.18;;;8.80;43.90;;;;;;2468209;55;21046;-65
2022/03/06 09:48:42;;;;;;;13.38;7.53;;;8.90;43.90;;;;;;2273845;55;21123;-64
2022/03/06 09:51:09;;;;;;;13.27;7.37;;;9.10;44.00;;;;;;2381264;55;20993;-65
2022/03/06 09:53:36;;;;;;;14.48;7.45;;;9.30;44.20;;;;;;2286356;55;21014;-65
2022/03/06 09:56:02;;;;;;;12.55;7.32;;;9.50;44.30;;;;;;2517040;54;21262;-64
2022/03/06 09:58:29;;;;;;;12.20;7.55;;;9.60;44.30;;;;;;2446834;55;20978;-63
2022/03/06 10:00:57;;;;;;;12.43;7.20;;;9.80;44.40;;;;;;2356894;55;21439;-65
2022/03/06 10:03:23;;;;;;;15.40;8.07;;;10.00;43.90;;;;;;2285997;55;21776;-63
2022/03/06 10:05:50;;;;;;;12.40;7.03;;;10.30;44.20;;;;;;2374787;55;21066;-63
2022/03/06 10:08:21;;;;;;;12.18;7.18;;;10.60;44.30;;;;;;2287140;55;21054;-65
2022/03/06 10:10:52;;;;;;;13.95;7.57;;;10.90;44.50;;;;;;2364924;55;21037;-65
2022/03/06 10:13:52;;;;;;;13.02;8.02;;;11.20;44.50;;;;;;2286378;55;21377;-65
2022/03/06 10:16:21;;;;;;;12.70;7.57;;;11.60;43.90;;;;;;2286102;55;21052;-65
2022/03/06 10:18:49;;;;;;;11.75;7.53;;;11.90;44.30;;;;;;2286268;55;21725;-65
2022/03/06 10:21:21;;;;;;;13.05;7.80;;;12.10;43.70;;;;;;2364498;55;22141;-65
2022/03/06 10:23:49;;;;;;;13.15;8.05;;;12.30;43.10;;;;;;2285925;55;20978;-66
2022/03/06 10:26:24;;;;;;;13.35;7.82;;;12.50;42.90;;;;;;2429608;55;21049;-65
2022/03/06 10:28:58;;;;;;;11.25;7.37;;;12.70;42.60;;;;;;2285993;55;21475;-65
2022/03/06 10:31:26;;;;;;;13.27;7.95;;;12.90;42.80;;;;;;2362088;55;21014;-64
2022/03/06 10:34:12;;;;;;;11.73;7.15;;;13.20;43.00;;;;;;2290685;55;21045;-66
2022/03/06 10:36:43;;;;;;;10.95;6.45;;;13.50;42.70;;;;;;2280524;55;21562;-65
2022/03/06 10:39:46;;;;;;;11.98;7.47;;;13.70;43.30;;;;;;2286894;55;20961;-66
2022/03/06 10:42:18;;;;;;;11.35;6.53;;;14.10;42.10;;;;;;2436752;55;21880;-65
2022/03/06 10:44:46;;;;;;;10.98;6.82;;;14.40;43.20;;;;;;2267113;55;21085;-66
2022/03/06 10:47:14;;;;;;;9.05;6.28;;;14.70;43.00;;;;;;2518264;54;21042;-66
2022/03/06 10:49:40;;;;;;;10.43;6.22;;;14.90;42.60;;;;;;2286290;55;21565;-65
2022/03/06 10:52:17;;;;;;;10.02;6.35;;;15.20;42.10;;;;;;2348014;55;21049;-67
2022/03/06 10:54:53;;;;;;;9.27;5.57;;;15.40;41.30;;;;;;2423424;55;21006;-65
2022/03/06 10:57:20;;;;;;;8.80;5.43;;;15.70;41.40;;;;;;2369812;54;21079;-66
2022/03/06 10:59:47;;;;;;;9.48;5.70;;;15.90;41.20;;;;;;2277687;54;20978;-68
2022/03/06 11:02:14;;;;;;;10.68;6.35;;;16.10;40.60;;;;;;2415474;55;20965;-73
2022/03/06 11:04:42;;;;;;;9.05;5.87;;;16.20;40.00;;;;;;2286034;55;21025;-65
2022/03/06 11:07:08;;;;;;;9.65;5.82;;;16.30;39.10;;;;;;2376806;55;20962;-66
2022/03/06 11:09:35;;;;;;;9.43;5.53;;;16.30;38.70;;;;;;2286799;55;21006;-66
2022/03/06 11:12:01;;;;;;;8.32;5.50;;;16.30;38.10;;;;;;2520597;55;21359;-65
2022/03/06 11:14:27;;;;;;;8.45;5.43;;;16.30;37.70;;;;;;2282194;54;21502;-66
2022/03/06 11:16:54;;;;;;;8.27;5.07;;;16.30;37.60;;;;;;2515044;55;21915;-65
2022/03/06 11:19:21;;;;;;;7.15;4.68;;;16.30;37.10;;;;;;2286914;55;21819;-64
2022/03/06 11:21:47;;;;;;;8.07;5.20;;;16.20;36.60;;;;;;2362652;55;20981;-65
2022/03/06 11:24:28;;;;;;;8.93;5.40;;;16.10;36.10;;;;;;2518926;55;21494;-64
2022/03/06 11:30:29;;;;;;;9.18;5.62;;;15.90;35.70;;;;;;2308059;55;20982;-66
2022/03/06 11:33:17;;;;;;;9.65;5.03;;;15.80;35.60;;;;;;2453097;55;20982;-66
2022/03/06 11:35:46;;;;;;;9.88;5.90;;;15.80;36.00;;;;;;2286816;55;21053;-66
2022/03/06 11:38:15;;;;;;;8.40;4.93;;;15.80;36.60;;;;;;2286843;55;21554;-66
2022/03/06 11:41:07;;;;;;;10.02;5.80;;;15.90;36.70;;;;;;2357636;55;21046;-66
2022/03/06 11:43:47;;;;;;;7.78;4.55;;;16.10;35.90;;;;;;2285220;55;21026;-70
2022/03/06 11:46:20;;;;;;;8.73;5.40;;;16.20;36.90;;;;;;2293341;54;20984;-66
2022/03/06 11:49:08;;;;;;;8.07;5.00;;;16.40;36.70;;;;;;2275541;55;21669;-66
2022/03/06 11:51:38;;;;;;;9.18;5.55;;;16.50;35.10;;;;;;2286614;55;21574;-65
2022/03/06 11:54:10;;;;;;;8.88;5.07;;;16.50;35.10;;;;;;2301804;55;20966;-66
2022/03/06 11:56:47;;;;;;;7.65;4.93;;;16.40;35.10;;;;;;2482849;55;21034;-65
2022/03/06 11:59:27;;;;;;;7.45;4.65;;;16.40;34.40;;;;;;2267445;55;20971;-66
2022/03/06 12:02:03;;;;;;;7.87;4.87;;;16.40;34.00;;;;;;2361927;55;20946;-65
2022/03/06 12:04:45;;;;;;;7.00;4.45;;;16.40;34.50;;;;;;2289924;55;20989;-67
2022/03/06 12:07:11;;;;;;;7.50;4.60;;;16.40;34.40;;;;;;2335429;54;21021;-66
2022/03/06 12:09:42;;;;;;;8.95;5.10;;;16.40;34.60;;;;;;2284685;54;21661;-67
2022/03/06 12:12:14;;;;;;;7.93;4.82;;;16.40;34.90;;;;;;2450114;55;21013;-67
2022/03/06 12:14:55;;;;;;;7.32;4.32;;;16.40;33.90;;;;;;2286888;55;21902;-66
2022/03/06 12:17:30;;;;;;;8.25;5.25;;;16.30;33.30;;;;;;2454521;55;21862;-65
2022/03/06 12:20:23;;;;;;;8.20;5.05;;;16.20;33.10;;;;;;2285687;55;21006;-64
2022/03/06 12:22:54;;;;;;;7.80;4.45;;;16.10;32.40;;;;;;2385137;55;21422;-65
2022/03/06 12:25:31;;;;;;;7.45;4.55;;;16.00;32.90;;;;;;2287292;55;21431;-66
2022/03/06 12:28:39;;;;;;;7.15;4.28;;;15.90;32.90;;;;;;2327397;55;21071;-66
2022/03/06 12:31:42;;;;;;;7.70;4.78;;;15.80;32.50;;;;;;2285233;55;20954;-66
2022/03/06 12:34:34;;;;;;;;;;;15.70;32.30;;;;;;2525085;55;21030;-66
2022/03/06 12:37:00;;;;;;;6.80;3.95;;;15.60;32.80;;;;;;2287476;55;20064;-66
2022/03/06 12:39:27;;;;;;;8.05;5.22;;;15.50;33.50;;;;;;2416767;55;21769;-66
2022/03/06 12:41:53;;;;;;;9.02;5.10;;;15.40;33.00;;;;;;2286725;55;21351;-67
2022/03/06 12:44:24;;;;;;;7.95;4.70;;;15.30;32.70;;;;;;2380076;55;21015;-66
2022/03/06 12:46:51;;;;;;;7.07;4.32;;;15.20;32.30;;;;;;2267460;55;20974;-65
2022/03/06 12:49:20;;;;;;;8.63;4.57;;;15.10;32.40;;;;;;2338802;55;21010;-65
2022/03/06 12:51:47;;;;;;;8.85;5.20;;;14.90;32.10;;;;;;2288656;55;21493;-66
2022/03/06 12:54:19;;;;;;;7.18;4.35;;;14.80;32.20;;;;;;2284230;55;21491;-65
2022/03/06 12:56:45;;;;;;;8.63;5.10;;;14.80;32.30;;;;;;2286687;55;20934;-65
2022/03/06 12:59:15;;;;;;;8.45;5.00;;;14.80;32.70;;;;;;2286943;55;21033;-65
2022/03/06 13:01:41;;;;;;;7.97;5.00;;;14.80;32.80;;;;;;2287102;55;20994;-64
2022/03/06 13:04:09;;;;;;;7.78;4.47;;;14.80;33.30;;;;;;2452400;55;20962;-65
2022/03/06 13:06:35;;;;;;;8.43;5.22;;;14.90;33.60;;;;;;2287090;55;20954;-64
2022/03/06 13:09:02;;;;;;;7.97;4.87;;;15.10;33.90;;;;;;2520905;55;21589;-66
2022/03/06 13:11:29;;;;;;;9.82;5.20;;;15.20;33.60;;;;;;2287284;55;21465;-65
2022/03/06 13:14:03;;;;;;;7.22;4.40;;;15.30;33.70;;;;;;2317786;55;20952;-66
2022/03/06 13:16:30;;;;;;;7.82;4.32;;;15.50;33.80;;;;;;2286743;55;21599;-64